Terminal Aerodrome Forecast
Issued by NWS

Home | Current Version | Previous Version | Text Only | Print | Product List | Glossary On
Versions: 1 2 3 4 5 6 7 8 9 10 11 12 13 14 15 16 17 18 19 20 21 22 23 24 25 26 27 28 29
000
FTUS43 KDLH 241744 AAA
TAFHYR
TAF AMD
KHYR 241744Z 2418/2518 03015G23KT 3SM -SN BKN015 OVC020
      TEMPO 2418/2422 3/4SM -SN BR
     FM250200 01013G22KT 4SM -SN OVC012
     FM251000 25010G18KT P6SM SCT020=

USA.gov is the U.S. government's official web portal to all federal, state and local government web resources and services.